Time;durP1;ratioP1;P1;durP2;ratioP2;P2;SDS_P1;SDS_P2;PMS_P1;PMS_P2;Temp;Humidity;BMP_temperature;BMP_pressure;BME280_temperature;BME280_humidity;BME280_pressure;Samples;Min_cycle;Max_cycle;Signal;HPM_P1;HPM_P2
2023/12/15 00:00:00;;;;;;;32.47;19.67;;;4.60;99.90;;;;;;5053548;28;20171;-75
2023/12/15 00:02:26;;;;;;;30.70;19.33;;;4.60;99.90;;;;;;5053900;28;20255;-75
2023/12/15 00:04:52;;;;;;;34.20;20.03;;;4.60;99.90;;;;;;5054242;28;20251;-75
2023/12/15 00:07:17;;;;;;;33.03;20.87;;;4.70;99.90;;;;;;5053146;28;20234;-75
2023/12/15 00:09:43;;;;;;;29.77;19.67;;;4.70;99.90;;;;;;5053500;28;20190;-76
2023/12/15 00:12:08;;;;;;;32.70;20.23;;;4.80;99.90;;;;;;5053407;28;20254;-75
2023/12/15 00:14:34;;;;;;;34.10;19.43;;;4.80;99.90;;;;;;5053287;28;20205;-76
2023/12/15 00:16:59;;;;;;;33.30;18.90;;;4.80;99.90;;;;;;5069206;28;20187;-76
2023/12/15 00:19:25;;;;;;;33.63;20.60;;;4.80;99.90;;;;;;5073219;28;20266;-76
2023/12/15 00:21:50;;;;;;;32.03;20.17;;;4.80;99.90;;;;;;5073499;28;20174;-76
2023/12/15 00:24:16;;;;;;;33.73;20.67;;;4.80;99.90;;;;;;5073662;28;20164;-76
2023/12/15 00:26:41;;;;;;;35.10;20.87;;;4.80;99.90;;;;;;5072186;28;20179;-76
2023/12/15 00:29:07;;;;;;;33.07;19.23;;;4.90;99.90;;;;;;5073036;28;20239;-76
2023/12/15 00:31:32;;;;;;;32.23;20.77;;;4.90;99.90;;;;;;5067548;28;20233;-76
2023/12/15 00:33:58;;;;;;;30.77;20.70;;;4.90;99.90;;;;;;5071915;28;20569;-75
2023/12/15 00:36:23;;;;;;;39.90;20.30;;;4.90;99.90;;;;;;5073480;28;20586;-76
2023/12/15 00:38:49;;;;;;;29.83;19.17;;;4.90;99.90;;;;;;5072772;28;20226;-76
2023/12/15 00:41:15;;;;;;;32.17;19.73;;;4.90;99.90;;;;;;5054846;28;20265;-75
2023/12/15 00:43:40;;;;;;;32.33;19.63;;;4.90;99.90;;;;;;5059234;28;20195;-75
2023/12/15 00:46:06;;;;;;;29.90;20.03;;;4.90;99.90;;;;;;5052705;28;20183;-76
2023/12/15 00:48:31;;;;;;;34.07;18.87;;;5.00;99.90;;;;;;5052681;28;20196;-75
2023/12/15 00:50:57;;;;;;;29.80;19.13;;;5.00;99.90;;;;;;5053005;28;20215;-75
2023/12/15 00:53:23;;;;;;;30.23;18.53;;;5.00;99.90;;;;;;5061714;28;20251;-75
2023/12/15 00:55:49;;;;;;;32.03;19.70;;;5.00;99.90;;;;;;5071223;28;20179;-75
2023/12/15 00:58:14;;;;;;;29.27;19.00;;;5.00;99.90;;;;;;5054594;28;20190;-75
2023/12/15 01:00:40;;;;;;;28.43;17.30;;;5.00;99.90;;;;;;5072730;28;20175;-76
2023/12/15 01:03:05;;;;;;;34.67;18.70;;;5.00;99.90;;;;;;5072676;28;20583;-75
2023/12/15 01:05:31;;;;;;;27.97;18.60;;;5.00;99.90;;;;;;5062695;28;20187;-75
2023/12/15 01:07:56;;;;;;;29.23;18.43;;;5.00;99.90;;;;;;5052294;28;20191;-75
2023/12/15 01:10:22;;;;;;;26.37;18.00;;;5.10;99.90;;;;;;5052353;28;20210;-75
2023/12/15 01:12:48;;;;;;;28.67;18.17;;;5.10;99.90;;;;;;5052256;28;20196;-75
2023/12/15 01:15:13;;;;;;;30.63;18.83;;;5.10;99.90;;;;;;5057099;28;20186;-76
2023/12/15 01:17:39;;;;;;;29.07;18.63;;;5.10;99.90;;;;;;5072292;28;20235;-76
2023/12/15 01:20:05;;;;;;;33.67;17.53;;;5.10;99.90;;;;;;5072519;28;20671;-75
2023/12/15 01:22:30;;;;;;;29.40;18.43;;;5.10;99.90;;;;;;5071659;28;20214;-75
2023/12/15 01:24:56;;;;;;;34.13;18.27;;;5.10;99.90;;;;;;5067667;28;20586;-75
2023/12/15 01:27:22;;;;;;;27.97;18.00;;;5.10;99.90;;;;;;5052022;28;20221;-74
2023/12/15 01:29:47;;;;;;;29.83;18.07;;;5.10;99.90;;;;;;5052032;28;20190;-75
2023/12/15 01:32:12;;;;;;;28.53;18.80;;;5.10;99.90;;;;;;5052281;28;20199;-75
2023/12/15 01:34:38;;;;;;;28.57;18.93;;;5.10;99.90;;;;;;5052852;28;20211;-75
2023/12/15 01:37:03;;;;;;;29.90;19.00;;;5.10;99.90;;;;;;5071972;28;20174;-76
2023/12/15 01:39:29;;;;;;;30.60;18.47;;;5.20;99.90;;;;;;5071893;28;20183;-75
2023/12/15 01:41:54;;;;;;;26.73;17.77;;;5.20;99.90;;;;;;5072313;28;20643;-75
2023/12/15 01:44:20;;;;;;;32.63;17.70;;;5.20;99.90;;;;;;5072156;28;20517;-75
2023/12/15 01:46:46;;;;;;;32.80;17.90;;;5.20;99.90;;;;;;5053262;28;20187;-77
2023/12/15 01:49:11;;;;;;;30.90;17.73;;;5.20;99.90;;;;;;5051999;28;20192;-78
2023/12/15 01:51:37;;;;;;;35.73;18.90;;;5.20;99.90;;;;;;5051811;28;20676;-75
2023/12/15 01:54:03;;;;;;;28.00;17.83;;;5.20;99.90;;;;;;5051777;28;20255;-75
2023/12/15 01:56:28;;;;;;;28.33;17.93;;;5.20;99.90;;;;;;5067026;28;20261;-75
2023/12/15 01:58:54;;;;;;;31.50;18.37;;;5.20;99.90;;;;;;5071755;28;20217;-75
2023/12/15 02:01:20;;;;;;;29.43;18.53;;;5.30;99.90;;;;;;5072319;28;20179;-76
2023/12/15 02:03:45;;;;;;;24.97;15.90;;;5.30;99.90;;;;;;5072181;28;20182;-75
2023/12/15 02:06:11;;;;;;;30.00;17.53;;;5.30;99.90;;;;;;5060815;28;20183;-74
2023/12/15 02:08:36;;;;;;;32.23;17.63;;;5.30;99.90;;;;;;5055848;28;20227;-76
2023/12/15 02:11:02;;;;;;;30.23;17.90;;;5.30;99.90;;;;;;5056012;28;20527;-76
2023/12/15 02:13:28;;;;;;;32.67;17.60;;;5.30;99.90;;;;;;5055759;28;20218;-75
2023/12/15 02:15:54;;;;;;;29.10;16.13;;;5.30;99.90;;;;;;5065164;28;20257;-75
2023/12/15 02:18:19;;;;;;;30.13;17.90;;;5.40;99.90;;;;;;5075501;28;20191;-75
2023/12/15 02:20:45;;;;;;;28.30;17.30;;;5.30;99.90;;;;;;5075801;28;20170;-75
2023/12/15 02:23:10;;;;;;;29.00;17.20;;;5.30;99.90;;;;;;5074746;28;20662;-75
2023/12/15 02:25:36;;;;;;;30.47;18.10;;;5.40;99.90;;;;;;5073809;28;20190;-76
2023/12/15 02:28:01;;;;;;;27.27;16.07;;;5.40;99.90;;;;;;5075377;28;20678;-75
2023/12/15 02:30:27;;;;;;;27.13;16.37;;;5.40;99.90;;;;;;5075190;28;20175;-76
2023/12/15 02:32:52;;;;;;;29.77;18.23;;;5.40;99.90;;;;;;5057293;28;20662;-76
2023/12/15 02:35:18;;;;;;;25.47;16.03;;;5.40;99.90;;;;;;5074194;28;20585;-76
2023/12/15 02:37:43;;;;;;;29.47;16.73;;;5.40;99.90;;;;;;5075372;28;20232;-75
2023/12/15 02:40:09;;;;;;;24.97;16.20;;;5.40;99.90;;;;;;5075581;28;20510;-76
2023/12/15 02:42:35;;;;;;;34.27;16.30;;;5.40;99.90;;;;;;5075377;28;20221;-76
2023/12/15 02:45:01;;;;;;;26.47;16.70;;;5.50;99.90;;;;;;5061962;28;20184;-76
2023/12/15 02:47:28;;;;;;;27.43;16.80;;;5.50;99.90;;;;;;5074942;28;20191;-76
2023/12/15 02:49:54;;;;;;;29.60;16.70;;;5.50;99.90;;;;;;5075358;28;20167;-76
2023/12/15 02:52:20;;;;;;;25.30;15.43;;;5.50;99.90;;;;;;5074965;28;20333;-77
2023/12/15 02:54:46;;;;;;;28.80;16.80;;;5.60;99.90;;;;;;5074790;28;20248;-76
2023/12/15 02:57:11;;;;;;;29.37;16.60;;;5.50;99.90;;;;;;5073734;28;20187;-76
2023/12/15 02:59:37;;;;;;;26.03;16.60;;;5.60;99.90;;;;;;5064906;28;20210;-76
2023/12/15 03:02:03;;;;;;;28.83;16.77;;;5.60;99.90;;;;;;5069929;28;20239;-76
2023/12/15 03:04:29;;;;;;;25.90;16.47;;;5.60;99.90;;;;;;5075207;28;20296;-76
2023/12/15 03:06:55;;;;;;;27.07;16.93;;;5.60;99.90;;;;;;5074898;28;20175;-75
2023/12/15 03:09:20;;;;;;;30.30;16.50;;;5.60;99.90;;;;;;5065354;28;20214;-76
2023/12/15 03:11:46;;;;;;;26.90;16.43;;;5.70;99.90;;;;;;5054702;28;20180;-76
2023/12/15 03:14:12;;;;;;;30.47;17.03;;;5.60;99.90;;;;;;5054659;28;20616;-75
2023/12/15 03:16:37;;;;;;;26.67;16.07;;;5.70;99.90;;;;;;5053791;28;20286;-76
2023/12/15 03:19:03;;;;;;;28.60;17.30;;;5.70;99.90;;;;;;5060042;28;20194;-76
2023/12/15 03:21:28;;;;;;;29.83;16.27;;;5.70;99.90;;;;;;5073813;28;20262;-75
2023/12/15 03:23:54;;;;;;;29.60;16.93;;;5.70;99.90;;;;;;5074309;28;20179;-75
2023/12/15 03:26:20;;;;;;;31.83;17.13;;;5.80;99.90;;;;;;5074327;28;20178;-76
2023/12/15 03:28:45;;;;;;;28.77;17.37;;;5.80;99.90;;;;;;5070459;28;20214;-75
2023/12/15 03:31:11;;;;;;;28.07;16.27;;;5.80;99.90;;;;;;5055344;28;20191;-76
2023/12/15 03:33:36;;;;;;;27.23;16.90;;;5.80;99.90;;;;;;5074276;28;20191;-76
2023/12/15 03:36:05;;;;;;;29.57;16.83;;;5.80;99.90;;;;;;5074181;28;20171;-76
2023/12/15 03:38:31;;;;;;;27.80;16.03;;;5.80;99.90;;;;;;5072891;28;20195;-75
2023/12/15 03:40:57;;;;;;;31.97;16.30;;;5.80;99.90;;;;;;5074211;28;20203;-75
2023/12/15 03:43:22;;;;;;;37.83;18.27;;;5.80;99.90;;;;;;5074213;28;20217;-75
2023/12/15 03:45:48;;;;;;;37.73;16.87;;;5.80;99.90;;;;;;5074268;28;20210;-76
2023/12/15 03:48:14;;;;;;;28.27;15.33;;;5.80;99.90;;;;;;5073859;28;20218;-76
2023/12/15 03:50:39;;;;;;;29.27;17.10;;;5.90;99.90;;;;;;5056206;28;20179;-75
2023/12/15 03:53:05;;;;;;;27.43;16.63;;;5.80;99.90;;;;;;5035900;28;20775;-75
2023/12/15 03:55:30;;;;;;;28.70;16.63;;;5.80;99.90;;;;;;5053869;28;20282;-76
2023/12/15 03:57:56;;;;;;;31.30;17.03;;;5.80;99.90;;;;;;5053764;28;20286;-76
2023/12/15 04:00:21;;;;;;;24.10;16.60;;;5.90;99.90;;;;;;5053649;28;20234;-76
2023/12/15 04:02:47;;;;;;;30.87;18.33;;;5.90;99.90;;;;;;5053888;28;20275;-76
2023/12/15 04:05:13;;;;;;;29.73;18.37;;;5.90;99.90;;;;;;5053723;28;20168;-75
2023/12/15 04:07:38;;;;;;;34.90;19.00;;;5.90;99.90;;;;;;5053677;28;20264;-76
2023/12/15 04:10:05;;;;;;;33.90;19.13;;;5.90;99.90;;;;;;5053694;28;20717;-76
2023/12/15 04:12:30;;;;;;;31.67;18.83;;;5.90;99.90;;;;;;5053501;28;20679;-76
2023/12/15 04:14:56;;;;;;;30.73;19.03;;;6.00;99.90;;;;;;5053425;28;20176;-75
2023/12/15 04:17:22;;;;;;;36.40;19.00;;;5.90;99.90;;;;;;5053327;28;20247;-76
2023/12/15 04:19:47;;;;;;;31.13;20.27;;;6.00;99.90;;;;;;5053372;28;20176;-76
2023/12/15 04:22:13;;;;;;;35.53;20.13;;;6.00;99.90;;;;;;5068581;28;20587;-76
2023/12/15 04:24:40;;;;;;;39.13;20.73;;;6.00;99.90;;;;;;5073252;28;20179;-75
2023/12/15 04:27:05;;;;;;;39.30;21.23;;;6.00;99.90;;;;;;5073216;28;20171;-75
2023/12/15 04:29:31;;;;;;;35.83;20.10;;;6.00;99.90;;;;;;5055264;28;20485;-76
2023/12/15 04:31:56;;;;;;;39.60;20.73;;;6.00;99.90;;;;;;5073151;28;20198;-76
2023/12/15 04:34:22;;;;;;;35.20;20.80;;;6.10;99.90;;;;;;5072632;28;20190;-76
2023/12/15 04:36:47;;;;;;;37.70;22.00;;;6.10;99.90;;;;;;5072755;28;20687;-76
2023/12/15 04:39:13;;;;;;;37.90;21.47;;;6.10;99.90;;;;;;5073158;28;20296;-76
2023/12/15 04:41:38;;;;;;;37.10;21.20;;;6.10;99.90;;;;;;5073532;28;20560;-76
2023/12/15 04:44:04;;;;;;;35.37;20.70;;;6.10;99.90;;;;;;5073194;28;20178;-76
2023/12/15 04:46:30;;;;;;;39.73;22.33;;;6.10;99.90;;;;;;5073008;28;20174;-76
2023/12/15 04:48:59;;;;;;;38.90;21.67;;;6.10;99.90;;;;;;5072869;28;20182;-76
2023/12/15 04:51:25;;;;;;;37.80;22.33;;;6.10;99.90;;;;;;5071557;28;20187;-76
2023/12/15 04:53:51;;;;;;;32.13;20.77;;;6.10;99.90;;;;;;5072768;28;20340;-76
2023/12/15 04:56:17;;;;;;;42.60;21.97;;;6.10;99.90;;;;;;5073173;28;20573;-76
2023/12/15 04:58:43;;;;;;;40.17;21.43;;;6.10;99.90;;;;;;5072743;28;20207;-76
2023/12/15 05:01:15;;;;;;;41.27;21.37;;;6.10;99.90;;;;;;5072735;28;20181;-76
2023/12/15 05:03:44;;;;;;;36.47;21.37;;;6.10;99.90;;;;;;5060110;28;20183;-76
2023/12/15 05:06:21;;;;;;;35.37;21.73;;;6.10;99.90;;;;;;5052901;28;20230;-76
2023/12/15 05:08:47;;;;;;;43.47;21.57;;;6.20;99.90;;;;;;5052610;28;20197;-76
2023/12/15 05:11:14;;;;;;;42.83;21.80;;;6.20;99.90;;;;;;5052909;28;20210;-76
2023/12/15 05:13:39;;;;;;;31.60;20.83;;;6.20;99.90;;;;;;5052262;28;20206;-76
2023/12/15 05:16:06;;;;;;;37.87;20.63;;;6.20;99.90;;;;;;5052622;28;20179;-76
2023/12/15 05:18:31;;;;;;;37.43;21.33;;;6.20;99.90;;;;;;5052705;28;20620;-76
2023/12/15 05:20:57;;;;;;;40.90;20.83;;;6.20;99.90;;;;;;5052625;28;20183;-76
2023/12/15 05:23:22;;;;;;;40.93;21.53;;;6.20;99.90;;;;;;5052364;28;20186;-76
2023/12/15 05:25:48;;;;;;;37.80;21.03;;;6.20;99.90;;;;;;5052204;28;20175;-76
2023/12/15 05:28:13;;;;;;;34.43;20.57;;;6.20;99.90;;;;;;5052085;28;20191;-76
2023/12/15 05:30:39;;;;;;;39.53;22.67;;;6.20;99.90;;;;;;5052200;28;20592;-76
2023/12/15 05:33:05;;;;;;;36.90;20.83;;;6.20;99.90;;;;;;5056161;28;20694;-76
2023/12/15 05:35:30;;;;;;;41.07;21.27;;;6.20;99.90;;;;;;5071966;28;20253;-76
2023/12/15 05:37:56;;;;;;;41.13;22.17;;;6.20;99.90;;;;;;5071873;28;20191;-76
2023/12/15 05:40:21;;;;;;;39.93;21.27;;;6.20;99.90;;;;;;5071718;28;20178;-76
2023/12/15 05:42:47;;;;;;;45.57;23.33;;;6.20;99.90;;;;;;5071921;28;20202;-76
2023/12/15 05:45:13;;;;;;;37.30;21.57;;;6.20;99.90;;;;;;5070113;28;20726;-76
2023/12/15 05:47:39;;;;;;;46.53;23.33;;;6.20;99.90;;;;;;5051753;28;20298;-76
2023/12/15 05:50:05;;;;;;;37.60;21.87;;;6.30;99.90;;;;;;5052063;28;20168;-76
2023/12/15 05:52:31;;;;;;;38.33;22.33;;;6.30;99.90;;;;;;5051817;28;20652;-76
2023/12/15 05:54:57;;;;;;;39.63;22.03;;;6.30;99.90;;;;;;5051945;28;20221;-76
2023/12/15 05:57:22;;;;;;;45.60;22.57;;;6.30;99.90;;;;;;5051768;28;20183;-76
2023/12/15 05:59:48;;;;;;;41.93;23.07;;;6.30;99.90;;;;;;5060059;28;20566;-76
2023/12/15 06:02:13;;;;;;;40.27;23.00;;;6.30;99.90;;;;;;5072077;28;20182;-76
2023/12/15 06:04:39;;;;;;;39.60;22.67;;;6.30;99.90;;;;;;5072387;28;20178;-75
2023/12/15 06:07:04;;;;;;;36.83;22.33;;;6.30;99.90;;;;;;5071884;28;20183;-75
2023/12/15 06:09:30;;;;;;;42.07;22.03;;;6.40;99.90;;;;;;5071738;28;20256;-76
2023/12/15 06:11:55;;;;;;;43.33;23.93;;;6.40;99.90;;;;;;5072044;28;20552;-77
2023/12/15 06:14:21;;;;;;;41.43;23.30;;;6.40;99.90;;;;;;5072499;28;20206;-77
2023/12/15 06:16:47;;;;;;;45.67;23.27;;;6.40;99.90;;;;;;5057047;28;20176;-77
2023/12/15 06:19:13;;;;;;;44.87;22.23;;;6.40;99.90;;;;;;5051798;28;20225;-77
2023/12/15 06:21:39;;;;;;;46.80;24.80;;;6.40;99.90;;;;;;5052394;28;20184;-76
2023/12/15 06:24:05;;;;;;;42.73;22.80;;;6.50;99.90;;;;;;5052298;28;20187;-76
2023/12/15 06:26:30;;;;;;;49.07;24.70;;;6.40;99.90;;;;;;5052689;28;20179;-77
2023/12/15 06:28:56;;;;;;;54.87;24.57;;;6.50;99.90;;;;;;5053065;28;20200;-77
2023/12/15 06:31:22;;;;;;;46.23;24.37;;;6.50;99.90;;;;;;5052376;28;20285;-78
2023/12/15 06:33:48;;;;;;;55.07;25.40;;;6.50;99.90;;;;;;5053643;28;20320;-75
2023/12/15 06:36:14;;;;;;;56.50;24.67;;;6.60;99.90;;;;;;5052640;28;20270;-76
2023/12/15 06:38:43;;;;;;;56.83;25.83;;;6.60;99.90;;;;;;5070688;28;20195;-76
2023/12/15 06:41:09;;;;;;;53.20;25.33;;;6.60;99.90;;;;;;5072035;28;20194;-77
2023/12/15 06:43:38;;;;;;;52.97;25.53;;;6.60;99.90;;;;;;5071978;28;20229;-76
2023/12/15 06:46:04;;;;;;;53.60;25.40;;;6.70;99.90;;;;;;5071757;28;20233;-75
2023/12/15 06:48:30;;;;;;;54.27;24.50;;;6.80;99.90;;;;;;5070385;28;20199;-77
2023/12/15 06:50:55;;;;;;;52.80;23.33;;;6.70;99.90;;;;;;5071609;28;20178;-75
2023/12/15 06:53:21;;;;;;;50.23;23.37;;;6.70;99.90;;;;;;5073917;28;20199;-76
2023/12/15 06:55:46;;;;;;;58.50;24.13;;;6.70;99.90;;;;;;5075087;28;20200;-76
2023/12/15 06:58:12;;;;;;;49.07;22.87;;;6.70;99.90;;;;;;5056985;28;20230;-76
2023/12/15 07:00:39;;;;;;;52.60;21.97;;;6.80;99.90;;;;;;5074798;28;20167;-76
2023/12/15 07:03:05;;;;;;;54.57;23.97;;;6.80;99.90;;;;;;5074892;28;20643;-76
2023/12/15 07:05:30;;;;;;;53.27;24.33;;;6.80;99.90;;;;;;5068565;28;20192;-76
2023/12/15 07:07:56;;;;;;;53.63;23.23;;;6.80;99.90;;;;;;5054353;28;20211;-76
2023/12/15 07:10:22;;;;;;;54.20;23.90;;;6.90;99.90;;;;;;5069122;28;20183;-76
2023/12/15 07:12:47;;;;;;;59.00;24.40;;;6.80;99.90;;;;;;5074624;28;20177;-76
2023/12/15 07:15:13;;;;;;;59.40;25.37;;;6.90;99.90;;;;;;5074568;28;20166;-76
2023/12/15 07:17:39;;;;;;;58.23;24.57;;;6.80;99.90;;;;;;5074426;28;20191;-76
2023/12/15 07:20:05;;;;;;;61.47;25.40;;;6.90;99.90;;;;;;5074679;28;20643;-76
2023/12/15 07:22:30;;;;;;;62.93;26.03;;;6.90;99.90;;;;;;5064915;28;20226;-75
2023/12/15 07:24:56;;;;;;;66.43;25.17;;;6.90;99.90;;;;;;5054605;28;20203;-74
2023/12/15 07:27:22;;;;;;;54.73;24.00;;;6.90;99.90;;;;;;5054278;28;20172;-75
2023/12/15 07:29:47;;;;;;;61.30;24.93;;;6.90;99.90;;;;;;5054268;28;20250;-75
2023/12/15 07:32:13;;;;;;;68.37;26.30;;;6.90;99.90;;;;;;5054252;28;20187;-74
2023/12/15 07:34:38;;;;;;;68.53;25.50;;;6.90;99.90;;;;;;5054268;28;20202;-74
2023/12/15 07:37:04;;;;;;;68.33;25.67;;;7.00;99.90;;;;;;5054170;28;20203;-74
2023/12/15 07:39:29;;;;;;;60.73;22.97;;;7.00;99.90;;;;;;5067444;28;20203;-75
2023/12/15 07:41:55;;;;;;;60.77;24.20;;;7.00;99.90;;;;;;5074183;28;20175;-75
2023/12/15 07:44:21;;;;;;;67.47;25.33;;;7.00;99.90;;;;;;5074826;28;20210;-75
2023/12/15 07:46:46;;;;;;;64.57;25.77;;;7.00;99.90;;;;;;5074076;28;20723;-75
2023/12/15 07:49:13;;;;;;;73.17;26.23;;;7.00;99.90;;;;;;5073788;28;20210;-75
2023/12/15 07:51:39;;;;;;;70.33;27.10;;;7.10;99.90;;;;;;5074057;28;20592;-76
2023/12/15 07:54:04;;;;;;;71.07;26.03;;;7.10;99.90;;;;;;5058195;28;20213;-75
2023/12/15 07:56:30;;;;;;;73.10;26.30;;;7.10;99.90;;;;;;5053103;28;20194;-76
2023/12/15 07:58:56;;;;;;;81.57;28.03;;;7.10;99.90;;;;;;5054311;28;20230;-75
2023/12/15 08:01:24;;;;;;;69.80;25.90;;;7.10;99.90;;;;;;5053931;28;20254;-75
2023/12/15 08:03:50;;;;;;;75.23;27.20;;;7.10;99.90;;;;;;5053419;28;20288;-75
2023/12/15 08:06:16;;;;;;;75.33;27.63;;;7.10;99.90;;;;;;5053871;28;20187;-76
2023/12/15 08:08:44;;;;;;;77.23;26.43;;;7.10;99.90;;;;;;5053679;28;20200;-76
2023/12/15 08:11:10;;;;;;;78.63;28.33;;;7.20;99.90;;;;;;5069287;28;20195;-76
2023/12/15 08:13:37;;;;;;;68.57;28.03;;;7.10;99.90;;;;;;5053777;28;20203;-76
2023/12/15 08:16:03;;;;;;;71.70;28.00;;;7.20;99.90;;;;;;5053760;28;20176;-76
2023/12/15 08:18:29;;;;;;;78.43;29.03;;;7.20;99.90;;;;;;5053670;28;20191;-75
2023/12/15 08:20:54;;;;;;;77.30;29.13;;;7.20;99.90;;;;;;5053441;28;20183;-76
2023/12/15 08:23:20;;;;;;;76.27;28.40;;;7.20;99.90;;;;;;5053477;28;20270;-76
2023/12/15 08:25:45;;;;;;;73.77;27.77;;;7.20;99.90;;;;;;5053759;28;20207;-75
2023/12/15 08:28:11;;;;;;;83.00;28.07;;;7.30;99.90;;;;;;5053478;28;20278;-75
2023/12/15 08:30:38;;;;;;;84.57;29.10;;;7.30;99.90;;;;;;5053347;28;20172;-76
2023/12/15 08:33:04;;;;;;;74.50;28.10;;;7.30;99.90;;;;;;5054305;28;20736;-76
2023/12/15 08:35:29;;;;;;;81.10;29.17;;;7.30;99.90;;;;;;5054192;28;20175;-76
2023/12/15 08:37:56;;;;;;;77.10;29.27;;;7.30;99.90;;;;;;5064906;28;20207;-76
2023/12/15 08:40:22;;;;;;;71.20;27.70;;;7.30;99.90;;;;;;5073180;28;20265;-75
2023/12/15 08:42:48;;;;;;;79.80;29.07;;;7.30;99.90;;;;;;5073065;28;20175;-76
2023/12/15 08:45:13;;;;;;;81.27;27.63;;;7.30;99.90;;;;;;5068844;28;20222;-76
2023/12/15 08:47:39;;;;;;;88.07;30.53;;;7.30;99.90;;;;;;5052806;28;20265;-75
2023/12/15 08:50:05;;;;;;;74.97;28.60;;;7.30;99.90;;;;;;5052886;28;20259;-76
2023/12/15 08:52:30;;;;;;;74.97;29.50;;;7.40;99.90;;;;;;5053495;28;20179;-75
2023/12/15 08:54:56;;;;;;;74.80;28.50;;;7.40;99.90;;;;;;5053587;28;20620;-75
2023/12/15 08:57:22;;;;;;;78.27;29.70;;;7.40;99.90;;;;;;5052734;28;20232;-74
2023/12/15 08:59:47;;;;;;;88.97;30.13;;;7.40;99.90;;;;;;5060606;28;20204;-75
2023/12/15 09:02:13;;;;;;;81.53;29.83;;;7.40;99.90;;;;;;5072634;28;20271;-74
2023/12/15 09:04:39;;;;;;;93.13;31.30;;;7.40;99.90;;;;;;5072442;28;20175;-75
2023/12/15 09:07:07;;;;;;;81.03;29.67;;;7.40;99.90;;;;;;5072425;28;20646;-75
2023/12/15 09:09:37;;;;;;;86.07;31.57;;;7.40;99.90;;;;;;5072707;28;20199;-77
2023/12/15 09:12:02;;;;;;;82.33;30.10;;;7.50;99.90;;;;;;5072370;28;20193;-76
2023/12/15 09:14:29;;;;;;;80.83;29.90;;;7.50;99.90;;;;;;5072058;28;20730;-76
2023/12/15 09:16:55;;;;;;;77.77;30.10;;;7.50;99.90;;;;;;5056822;28;20652;-76
2023/12/15 09:19:21;;;;;;;79.23;28.80;;;7.50;99.90;;;;;;5052369;28;20195;-75
2023/12/15 09:21:47;;;;;;;83.00;29.43;;;7.50;99.90;;;;;;5052460;28;20637;-75
2023/12/15 09:24:17;;;;;;;79.57;30.10;;;7.50;99.90;;;;;;5052389;28;20183;-75
2023/12/15 09:26:44;;;;;;;82.23;30.37;;;7.50;99.90;;;;;;5052565;28;20180;-75
2023/12/15 09:29:10;;;;;;;87.13;30.37;;;7.50;99.90;;;;;;5052110;28;20203;-75
2023/12/15 09:31:36;;;;;;;80.00;29.67;;;7.50;99.90;;;;;;5051725;28;20191;-75
2023/12/15 09:34:02;;;;;;;88.10;30.60;;;7.60;99.90;;;;;;5053857;28;20219;-75
2023/12/15 09:36:29;;;;;;;89.23;32.70;;;7.50;99.90;;;;;;5052206;28;20207;-75
2023/12/15 09:38:54;;;;;;;87.77;32.67;;;7.60;99.90;;;;;;5052183;28;20275;-75
2023/12/15 09:41:20;;;;;;;85.73;30.90;;;7.60;99.90;;;;;;5052251;28;20190;-74
2023/12/15 09:43:46;;;;;;;83.97;31.33;;;7.60;99.90;;;;;;5052251;28;20222;-74
2023/12/15 09:46:12;;;;;;;90.77;31.67;;;7.70;99.90;;;;;;5052043;28;20176;-76
2023/12/15 09:48:38;;;;;;;81.43;30.97;;;7.70;99.90;;;;;;5052431;28;20500;-76
2023/12/15 09:51:09;;;;;;;85.33;32.20;;;7.60;99.90;;;;;;5051412;28;20249;-75
2023/12/15 09:53:36;;;;;;;88.30;31.23;;;7.70;99.90;;;;;;5051764;28;20577;-76
2023/12/15 09:56:03;;;;;;;86.77;32.03;;;7.70;99.90;;;;;;5052118;28;20179;-76
2023/12/15 09:58:28;;;;;;;90.87;32.03;;;7.70;99.90;;;;;;5051953;28;20566;-75
2023/12/15 10:00:54;;;;;;;89.57;31.50;;;7.70;99.90;;;;;;5051797;28;20167;-76
2023/12/15 10:03:19;;;;;;;92.27;31.87;;;7.70;99.90;;;;;;5051849;28;20658;-78
2023/12/15 10:05:45;;;;;;;81.77;32.03;;;7.80;99.90;;;;;;5051668;28;20188;-75
2023/12/15 10:08:10;;;;;;;83.00;31.97;;;7.80;99.90;;;;;;5051864;28;20215;-75
2023/12/15 10:10:36;;;;;;;84.43;32.83;;;7.80;99.90;;;;;;5051738;28;20179;-75
2023/12/15 10:13:02;;;;;;;80.97;32.13;;;7.80;99.90;;;;;;5051895;28;20252;-75
2023/12/15 10:15:27;;;;;;;94.53;33.70;;;7.90;99.90;;;;;;5051807;28;20646;-75
2023/12/15 10:17:54;;;;;;;84.10;32.33;;;7.80;99.90;;;;;;5051606;28;20280;-75
2023/12/15 10:20:20;;;;;;;82.13;33.57;;;7.90;99.90;;;;;;5052122;28;20168;-76
2023/12/15 10:22:46;;;;;;;88.00;34.47;;;7.90;99.90;;;;;;5051953;28;20194;-77
2023/12/15 10:25:33;;;;;;;86.43;33.03;;;7.90;99.90;;;;;;5052534;28;20254;-76
2023/12/15 10:28:00;;;;;;;86.27;33.03;;;7.90;99.90;;;;;;5055539;28;20187;-76
2023/12/15 10:30:26;;;;;;;78.27;31.63;;;8.00;99.90;;;;;;5055627;28;20176;-76
2023/12/15 10:32:56;;;;;;;83.50;32.30;;;8.00;99.90;;;;;;5055422;28;20193;-76
2023/12/15 10:35:25;;;;;;;96.67;35.70;;;8.00;99.90;;;;;;5055951;28;20178;-76
2023/12/15 10:37:52;;;;;;;86.97;32.67;;;8.00;99.90;;;;;;5056097;28;20290;-76
2023/12/15 10:40:17;;;;;;;90.17;34.73;;;8.00;99.90;;;;;;5055491;28;20225;-76
2023/12/15 10:42:44;;;;;;;86.23;34.73;;;8.00;99.90;;;;;;5055454;28;20187;-76
2023/12/15 10:45:10;;;;;;;82.10;34.23;;;8.10;99.90;;;;;;5055472;28;20206;-76
2023/12/15 10:47:36;;;;;;;91.97;33.23;;;8.10;99.90;;;;;;5055273;28;20706;-76
2023/12/15 10:50:03;;;;;;;90.20;33.77;;;8.10;99.90;;;;;;5055309;28;20608;-76
2023/12/15 10:52:32;;;;;;;80.97;34.87;;;8.20;99.90;;;;;;5055650;28;20179;-76
2023/12/15 10:54:59;;;;;;;86.53;34.63;;;8.20;99.90;;;;;;5055474;28;20208;-76
2023/12/15 10:57:25;;;;;;;80.63;31.97;;;8.20;99.90;;;;;;5055059;28;20228;-76
2023/12/15 10:59:50;;;;;;;82.10;31.93;;;8.20;99.90;;;;;;5055161;28;20250;-76
2023/12/15 11:02:19;;;;;;;71.93;32.80;;;8.20;99.90;;;;;;5055290;28;20271;-77
2023/12/15 11:04:48;;;;;;;74.97;31.77;;;8.20;99.90;;;;;;5057638;28;20167;-75
2023/12/15 11:07:14;;;;;;;72.37;31.70;;;8.20;99.90;;;;;;5055083;28;20176;-75
2023/12/15 11:09:39;;;;;;;75.67;31.03;;;8.30;99.90;;;;;;5055843;28;20180;-76
2023/12/15 11:12:24;;;;;;;66.83;31.80;;;8.30;99.90;;;;;;5055268;28;20176;-76
2023/12/15 11:14:57;;;;;;;71.07;32.43;;;8.20;99.90;;;;;;5055118;28;20195;-77
2023/12/15 11:17:22;;;;;;;70.23;33.10;;;8.30;99.90;;;;;;5054874;28;20246;-76
2023/12/15 11:19:56;;;;;;;70.30;31.97;;;8.30;99.90;;;;;;5055207;28;20187;-76
2023/12/15 11:22:21;;;;;;;71.40;30.27;;;8.30;99.90;;;;;;5056235;28;20635;-77
2023/12/15 11:24:47;;;;;;;69.83;31.63;;;8.30;99.90;;;;;;5055830;28;20180;-76
2023/12/15 11:27:13;;;;;;;69.23;31.27;;;8.40;99.90;;;;;;5054553;28;20551;-76
2023/12/15 11:29:40;;;;;;;75.13;31.73;;;8.40;99.90;;;;;;5054704;28;20183;-76
2023/12/15 11:32:33;;;;;;;71.23;32.43;;;8.40;99.90;;;;;;5054443;28;20195;-76
2023/12/15 11:34:59;;;;;;;72.30;31.70;;;8.40;99.90;;;;;;5054319;28;20646;-76
2023/12/15 11:37:26;;;;;;;79.03;33.33;;;8.50;99.90;;;;;;5054023;28;20172;-76
2023/12/15 11:39:53;;;;;;;74.03;31.70;;;8.50;99.90;;;;;;5054067;28;20202;-77
2023/12/15 11:42:19;;;;;;;69.93;32.43;;;8.50;99.90;;;;;;5054493;28;20187;-76
2023/12/15 11:44:45;;;;;;;67.37;30.97;;;8.50;99.90;;;;;;5054698;28;20183;-76
2023/12/15 11:47:13;;;;;;;74.60;32.70;;;8.60;99.90;;;;;;5054363;28;20524;-76
2023/12/15 11:49:42;;;;;;;74.70;32.37;;;8.50;99.90;;;;;;5054349;28;20175;-76
2023/12/15 11:52:12;;;;;;;66.13;30.77;;;8.60;99.90;;;;;;5054748;28;20183;-75
2023/12/15 11:54:39;;;;;;;69.27;32.07;;;8.60;99.90;;;;;;5054088;28;20679;-76
2023/12/15 11:57:07;;;;;;;68.23;30.77;;;8.60;99.90;;;;;;5054020;28;20255;-76
2023/12/15 11:59:44;;;;;;;68.70;31.60;;;8.60;99.90;;;;;;5054056;28;20581;-76
2023/12/15 12:02:12;;;;;;;68.50;31.60;;;8.60;99.90;;;;;;5053970;28;20623;-76
2023/12/15 12:04:42;;;;;;;70.57;32.47;;;8.60;99.90;;;;;;5054061;28;20176;-76
2023/12/15 12:07:08;;;;;;;67.40;30.97;;;8.60;99.90;;;;;;5053703;28;20181;-76
2023/12/15 12:09:34;;;;;;;69.93;31.67;;;8.60;99.90;;;;;;5053583;28;20195;-76
2023/12/15 12:12:00;;;;;;;69.07;30.90;;;8.60;99.90;;;;;;5053689;28;20274;-75
2023/12/15 12:14:27;;;;;;;65.70;30.63;;;8.60;99.90;;;;;;5052989;28;20203;-77
2023/12/15 12:16:53;;;;;;;63.60;30.83;;;8.60;99.90;;;;;;5053720;28;20628;-76
2023/12/15 12:19:21;;;;;;;57.13;29.83;;;8.60;99.90;;;;;;5053455;28;20229;-77
2023/12/15 12:21:50;;;;;;;60.23;30.07;;;8.60;99.90;;;;;;5054000;28;20204;-76
2023/12/15 12:24:15;;;;;;;66.77;30.17;;;8.60;99.90;;;;;;5053965;28;20249;-76
2023/12/15 12:26:41;;;;;;;62.03;31.33;;;8.60;99.90;;;;;;5054162;28;20655;-76
2023/12/15 12:29:06;;;;;;;73.23;32.87;;;8.70;99.90;;;;;;5055295;28;20257;-77